sensor_id;sensor_type;location;lat;lon;timestamp;pressure;altitude;pressure_sealevel;temperature;humidity
49723;BME280;43484;43.608;1.458;2024-03-08T00:00:10;98481.47;;;11.19;100.00
49723;BME280;43484;43.608;1.458;2024-03-08T00:02:43;98474.63;;;11.17;100.00
49723;BME280;43484;43.608;1.458;2024-03-08T00:05:10;98488.34;;;11.25;100.00
49723;BME280;43484;43.608;1.458;2024-03-08T00:07:38;98488.28;;;11.16;100.00
49723;BME280;43484;43.608;1.458;2024-03-08T00:10:07;98504.56;;;11.27;100.00
49723;BME280;43484;43.608;1.458;2024-03-08T00:12:43;98504.56;;;11.21;100.00
49723;BME280;43484;43.608;1.458;2024-03-08T00:15:10;98502.84;;;11.21;100.00
49723;BME280;43484;43.608;1.458;2024-03-08T00:17:38;98498.59;;;11.25;100.00
49723;BME280;43484;43.608;1.458;2024-03-08T00:20:05;98484.94;;;11.27;100.00
49723;BME280;43484;43.608;1.458;2024-03-08T00:22:38;98481.50;;;11.27;100.00
49723;BME280;43484;43.608;1.458;2024-03-08T00:25:05;98467.84;;;11.26;100.00
49723;BME280;43484;43.608;1.458;2024-03-08T00:27:36;98471.25;;;11.25;100.00
49723;BME280;43484;43.608;1.458;2024-03-08T00:30:03;98471.25;;;11.24;100.00
49723;BME280;43484;43.608;1.458;2024-03-08T00:32:30;98475.53;;;11.26;100.00
49723;BME280;43484;43.608;1.458;2024-03-08T00:34:58;98473.81;;;11.24;100.00
49723;BME280;43484;43.608;1.458;2024-03-08T00:37:25;98455.03;;;11.26;100.00
49723;BME280;43484;43.608;1.458;2024-03-08T00:39:52;98461.00;;;11.27;100.00
49723;BME280;43484;43.608;1.458;2024-03-08T00:42:19;98460.97;;;11.22;100.00
49723;BME280;43484;43.608;1.458;2024-03-08T00:44:47;98465.22;;;11.20;100.00
49723;BME280;43484;43.608;1.458;2024-03-08T00:47:15;98465.28;;;11.25;100.00
49723;BME280;43484;43.608;1.458;2024-03-08T00:49:41;98467.81;;;11.22;100.00
49723;BME280;43484;43.608;1.458;2024-03-08T00:52:09;98468.66;;;11.16;100.00
49723;BME280;43484;43.608;1.458;2024-03-08T00:54:35;98460.97;;;11.22;100.00
49723;BME280;43484;43.608;1.458;2024-03-08T00:57:05;98462.66;;;11.20;100.00
49723;BME280;43484;43.608;1.458;2024-03-08T00:59:33;98455.84;;;11.21;100.00
49723;BME280;43484;43.608;1.458;2024-03-08T01:02:01;98468.66;;;11.24;100.00
49723;BME280;43484;43.608;1.458;2024-03-08T01:04:28;98479.78;;;11.26;100.00
49723;BME280;43484;43.608;1.458;2024-03-08T01:06:58;98483.25;;;11.32;100.00
49723;BME280;43484;43.608;1.458;2024-03-08T01:09:26;98489.22;;;11.31;100.00
49723;BME280;43484;43.608;1.458;2024-03-08T01:11:54;98477.28;;;11.33;100.00
49723;BME280;43484;43.608;1.458;2024-03-08T01:14:22;98484.13;;;11.34;100.00
49723;BME280;43484;43.608;1.458;2024-03-08T01:16:49;98478.97;;;11.31;100.00
49723;BME280;43484;43.608;1.458;2024-03-08T01:19:17;98475.53;;;11.26;100.00
49723;BME280;43484;43.608;1.458;2024-03-08T01:21:44;98469.56;;;11.30;100.00
49723;BME280;43484;43.608;1.458;2024-03-08T01:24:10;98470.41;;;11.29;100.00
49723;BME280;43484;43.608;1.458;2024-03-08T01:26:37;98463.59;;;11.37;100.00
49723;BME280;43484;43.608;1.458;2024-03-08T01:29:05;98464.47;;;11.38;100.00
49723;BME280;43484;43.608;1.458;2024-03-08T01:31:32;98455.03;;;11.34;100.00
49723;BME280;43484;43.608;1.458;2024-03-08T01:33:58;98447.34;;;11.35;100.00
49723;BME280;43484;43.608;1.458;2024-03-08T01:36:25;98436.28;;;11.35;100.00
49723;BME280;43484;43.608;1.458;2024-03-08T01:38:52;98437.09;;;11.31;100.00
49723;BME280;43484;43.608;1.458;2024-03-08T01:41:19;98425.13;;;11.30;100.00
49723;BME280;43484;43.608;1.458;2024-03-08T01:43:46;98425.13;;;11.28;100.00
49723;BME280;43484;43.608;1.458;2024-03-08T01:46:19;98424.28;;;11.26;100.00
49723;BME280;43484;43.608;1.458;2024-03-08T01:48:45;98414.88;;;11.31;100.00
49723;BME280;43484;43.608;1.458;2024-03-08T01:51:12;98406.34;;;11.32;100.00
49723;BME280;43484;43.608;1.458;2024-03-08T01:53:43;98398.63;;;11.28;100.00
49723;BME280;43484;43.608;1.458;2024-03-08T01:56:13;98392.66;;;11.26;100.00
49723;BME280;43484;43.608;1.458;2024-03-08T01:58:43;98390.06;;;11.23;100.00
49723;BME280;43484;43.608;1.458;2024-03-08T02:01:13;98396.09;;;11.31;100.00
49723;BME280;43484;43.608;1.458;2024-03-08T02:03:44;98386.69;;;11.28;100.00
49723;BME280;43484;43.608;1.458;2024-03-08T02:06:12;98401.19;;;11.28;100.00
49723;BME280;43484;43.608;1.458;2024-03-08T02:08:45;98395.22;;;11.32;100.00
49723;BME280;43484;43.608;1.458;2024-03-08T02:11:13;98382.38;;;11.24;100.00
49723;BME280;43484;43.608;1.458;2024-03-08T02:13:40;98369.56;;;11.20;100.00
49723;BME280;43484;43.608;1.458;2024-03-08T02:16:06;98369.56;;;11.24;100.00
49723;BME280;43484;43.608;1.458;2024-03-08T02:18:35;98372.13;;;11.20;100.00
49723;BME280;43484;43.608;1.458;2024-03-08T02:21:05;98360.16;;;11.19;100.00
49723;BME280;43484;43.608;1.458;2024-03-08T02:23:32;98360.16;;;11.22;100.00
49723;BME280;43484;43.608;1.458;2024-03-08T02:26:00;98358.44;;;11.21;100.00
49723;BME280;43484;43.608;1.458;2024-03-08T02:28:26;98357.59;;;11.22;100.00
49723;BME280;43484;43.608;1.458;2024-03-08T02:30:54;98355.03;;;11.22;100.00
49723;BME280;43484;43.608;1.458;2024-03-08T02:33:23;98355.88;;;11.13;100.00
49723;BME280;43484;43.608;1.458;2024-03-08T02:35:50;98349.03;;;11.14;100.00
49723;BME280;43484;43.608;1.458;2024-03-08T02:38:19;98361.00;;;11.16;100.00
49723;BME280;43484;43.608;1.458;2024-03-08T02:40:48;98347.31;;;11.16;100.00
49723;BME280;43484;43.608;1.458;2024-03-08T02:43:16;98351.59;;;11.15;100.00
49723;BME280;43484;43.608;1.458;2024-03-08T02:45:43;98345.63;;;11.15;100.00
49723;BME280;43484;43.608;1.458;2024-03-08T02:48:11;98346.47;;;11.12;100.00
49723;BME280;43484;43.608;1.458;2024-03-08T02:50:38;98350.75;;;11.16;100.00
49723;BME280;43484;43.608;1.458;2024-03-08T02:53:06;98342.19;;;11.16;100.00
49723;BME280;43484;43.608;1.458;2024-03-08T02:55:34;98342.19;;;11.16;100.00
49723;BME280;43484;43.608;1.458;2024-03-08T02:58:03;98339.63;;;11.11;100.00
49723;BME280;43484;43.608;1.458;2024-03-08T03:00:30;98338.75;;;11.06;100.00
49723;BME280;43484;43.608;1.458;2024-03-08T03:03:00;98336.19;;;11.06;100.00
49723;BME280;43484;43.608;1.458;2024-03-08T03:05:29;98331.91;;;11.07;100.00
49723;BME280;43484;43.608;1.458;2024-03-08T03:07:56;98336.19;;;11.08;100.00
49723;BME280;43484;43.608;1.458;2024-03-08T03:10:24;98336.16;;;11.02;100.00
49723;BME280;43484;43.608;1.458;2024-03-08T03:12:53;98337.91;;;11.06;100.00
49723;BME280;43484;43.608;1.458;2024-03-08T03:15:19;98336.19;;;11.05;100.00
49723;BME280;43484;43.608;1.458;2024-03-08T03:17:47;98316.53;;;11.02;100.00
49723;BME280;43484;43.608;1.458;2024-03-08T03:20:14;98331.91;;;11.07;100.00
49723;BME280;43484;43.608;1.458;2024-03-08T03:22:49;98322.53;;;11.06;100.00
49723;BME280;43484;43.608;1.458;2024-03-08T03:25:20;98319.97;;;11.04;100.00
49723;BME280;43484;43.608;1.458;2024-03-08T03:27:55;98336.19;;;11.08;100.00
49723;BME280;43484;43.608;1.458;2024-03-08T03:30:25;98332.78;;;11.07;100.00
49723;BME280;43484;43.608;1.458;2024-03-08T03:32:53;98325.09;;;11.07;100.00
49723;BME280;43484;43.608;1.458;2024-03-08T03:35:21;98313.13;;;11.06;100.00
49723;BME280;43484;43.608;1.458;2024-03-08T03:37:49;98315.69;;;11.08;100.00
49723;BME280;43484;43.608;1.458;2024-03-08T03:40:28;98303.72;;;11.07;100.00
49723;BME280;43484;43.608;1.458;2024-03-08T03:42:55;98299.47;;;11.07;100.00
49723;BME280;43484;43.608;1.458;2024-03-08T03:45:23;98291.78;;;11.03;100.00
49723;BME280;43484;43.608;1.458;2024-03-08T03:47:50;98275.53;;;10.96;100.00
49723;BME280;43484;43.608;1.458;2024-03-08T03:50:19;98273.84;;;11.04;100.00
49723;BME280;43484;43.608;1.458;2024-03-08T03:52:48;98274.66;;;11.02;100.00
49723;BME280;43484;43.608;1.458;2024-03-08T03:55:15;98274.66;;;11.00;100.00
49723;BME280;43484;43.608;1.458;2024-03-08T03:57:42;98280.66;;;10.96;100.00
49723;BME280;43484;43.608;1.458;2024-03-08T04:00:08;98250.78;;;11.00;100.00
49723;BME280;43484;43.608;1.458;2024-03-08T04:02:38;98240.53;;;11.00;100.00
49723;BME280;43484;43.608;1.458;2024-03-08T04:05:09;98263.59;;;10.98;100.00
49723;BME280;43484;43.608;1.458;2024-03-08T04:07:37;98262.72;;;11.02;100.00
49723;BME280;43484;43.608;1.458;2024-03-08T04:10:05;98281.47;;;10.95;100.00
49723;BME280;43484;43.608;1.458;2024-03-08T04:12:35;98286.59;;;10.92;100.00
49723;BME280;43484;43.608;1.458;2024-03-08T04:15:02;98286.59;;;10.92;100.00
49723;BME280;43484;43.608;1.458;2024-03-08T04:17:29;98282.34;;;10.96;100.00
49723;BME280;43484;43.608;1.458;2024-03-08T04:19:56;98302.84;;;10.91;100.00
49723;BME280;43484;43.608;1.458;2024-03-08T04:22:23;98295.16;;;10.90;100.00
49723;BME280;43484;43.608;1.458;2024-03-08T04:24:50;98295.16;;;10.91;100.00
49723;BME280;43484;43.608;1.458;2024-03-08T04:27:17;98269.53;;;10.96;100.00
49723;BME280;43484;43.608;1.458;2024-03-08T04:29:43;98286.59;;;10.94;100.00
49723;BME280;43484;43.608;1.458;2024-03-08T04:32:11;98283.22;;;11.01;100.00
49723;BME280;43484;43.608;1.458;2024-03-08T04:34:40;98270.38;;;10.92;100.00
49723;BME280;43484;43.608;1.458;2024-03-08T04:37:11;98261.03;;;11.00;100.00
49723;BME280;43484;43.608;1.458;2024-03-08T04:39:40;98266.16;;;11.01;100.00
49723;BME280;43484;43.608;1.458;2024-03-08T04:42:07;98254.16;;;11.00;100.00
49723;BME280;43484;43.608;1.458;2024-03-08T04:44:37;98247.34;;;10.98;100.00
49723;BME280;43484;43.608;1.458;2024-03-08T04:47:06;98239.66;;;11.01;100.00
49723;BME280;43484;43.608;1.458;2024-03-08T04:49:33;98222.59;;;11.04;100.00
49723;BME280;43484;43.608;1.458;2024-03-08T04:52:03;98250.78;;;11.04;100.00
49723;BME280;43484;43.608;1.458;2024-03-08T04:54:31;98231.97;;;10.99;100.00
49723;BME280;43484;43.608;1.458;2024-03-08T04:56:58;98209.78;;;11.04;100.00
49723;BME280;43484;43.608;1.458;2024-03-08T04:59:27;98217.47;;;11.03;100.00
49723;BME280;43484;43.608;1.458;2024-03-08T05:01:54;98200.38;;;11.09;100.00
49723;BME280;43484;43.608;1.458;2024-03-08T05:04:21;98191.84;;;11.09;100.00
49723;BME280;43484;43.608;1.458;2024-03-08T05:06:48;98194.41;;;11.10;100.00
49723;BME280;43484;43.608;1.458;2024-03-08T05:09:14;98185.84;;;11.05;100.00
49723;BME280;43484;43.608;1.458;2024-03-08T05:11:43;98172.19;;;11.14;100.00
49723;BME280;43484;43.608;1.458;2024-03-08T05:14:16;98163.66;;;11.10;100.00
49723;BME280;43484;43.608;1.458;2024-03-08T05:16:44;98161.09;;;11.07;100.00
49723;BME280;43484;43.608;1.458;2024-03-08T05:19:19;98151.69;;;11.09;100.00
49723;BME280;43484;43.608;1.458;2024-03-08T05:21:47;98157.69;;;11.13;100.00
49723;BME280;43484;43.608;1.458;2024-03-08T05:24:14;98144.00;;;11.12;100.00
49723;BME280;43484;43.608;1.458;2024-03-08T05:26:42;98128.63;;;11.09;100.00
49723;BME280;43484;43.608;1.458;2024-03-08T05:29:09;98126.94;;;11.11;100.00
49723;BME280;43484;43.608;1.458;2024-03-08T05:31:56;98126.06;;;11.17;100.00
49723;BME280;43484;43.608;1.458;2024-03-08T05:34:24;98134.63;;;11.14;100.00
49723;BME280;43484;43.608;1.458;2024-03-08T05:36:52;98135.47;;;11.13;100.00
49723;BME280;43484;43.608;1.458;2024-03-08T05:39:21;98125.22;;;11.15;100.00
49723;BME280;43484;43.608;1.458;2024-03-08T05:41:48;98129.50;;;11.14;100.00
49723;BME280;43484;43.608;1.458;2024-03-08T05:44:15;98131.19;;;11.17;100.00
49723;BME280;43484;43.608;1.458;2024-03-08T05:46:43;98133.78;;;11.18;100.00
49723;BME280;43484;43.608;1.458;2024-03-08T05:49:10;98140.59;;;11.19;100.00
49723;BME280;43484;43.608;1.458;2024-03-08T05:51:38;98136.31;;;11.15;100.00
49723;BME280;43484;43.608;1.458;2024-03-08T05:54:07;98132.91;;;11.19;100.00
49723;BME280;43484;43.608;1.458;2024-03-08T05:56:38;98139.75;;;11.23;100.00
49723;BME280;43484;43.608;1.458;2024-03-08T05:59:05;98150.84;;;11.33;100.00
49723;BME280;43484;43.608;1.458;2024-03-08T06:01:32;98144.84;;;11.34;100.00
49723;BME280;43484;43.608;1.458;2024-03-08T06:04:03;98137.16;;;11.32;100.00
49723;BME280;43484;43.608;1.458;2024-03-08T06:06:31;98138.03;;;11.33;100.00
49723;BME280;43484;43.608;1.458;2024-03-08T06:08:57;98123.50;;;11.33;100.00
49723;BME280;43484;43.608;1.458;2024-03-08T06:11:25;98119.22;;;11.34;100.00
49723;BME280;43484;43.608;1.458;2024-03-08T06:13:57;98094.44;;;11.37;100.00
49723;BME280;43484;43.608;1.458;2024-03-08T06:16:27;98081.59;;;11.40;100.00
49723;BME280;43484;43.608;1.458;2024-03-08T06:18:57;98071.38;;;11.37;100.00
49723;BME280;43484;43.608;1.458;2024-03-08T06:21:24;98065.38;;;11.40;100.00
49723;BME280;43484;43.608;1.458;2024-03-08T06:23:54;98061.97;;;11.41;100.00
49723;BME280;43484;43.608;1.458;2024-03-08T06:26:26;98050.00;;;11.45;100.00
49723;BME280;43484;43.608;1.458;2024-03-08T06:28:57;98050.00;;;11.42;100.00
49723;BME280;43484;43.608;1.458;2024-03-08T06:31:24;98038.88;;;11.43;100.00
49723;BME280;43484;43.608;1.458;2024-03-08T06:33:51;98039.75;;;11.43;100.00
49723;BME280;43484;43.608;1.458;2024-03-08T06:36:18;98037.13;;;11.49;100.00
49723;BME280;43484;43.608;1.458;2024-03-08T06:38:51;98038.88;;;11.41;100.00
49723;BME280;43484;43.608;1.458;2024-03-08T06:41:18;98015.81;;;11.38;100.00
49723;BME280;43484;43.608;1.458;2024-03-08T06:43:45;98008.97;;;11.42;100.00
49723;BME280;43484;43.608;1.458;2024-03-08T06:46:15;98004.72;;;11.44;100.00
49723;BME280;43484;43.608;1.458;2024-03-08T06:48:42;97979.94;;;11.38;100.00
49723;BME280;43484;43.608;1.458;2024-03-08T06:51:09;97966.22;;;11.40;100.00
49723;BME280;43484;43.608;1.458;2024-03-08T06:53:37;97961.09;;;11.40;100.00
49723;BME280;43484;43.608;1.458;2024-03-08T06:56:05;97964.50;;;11.44;100.00
49723;BME280;43484;43.608;1.458;2024-03-08T06:58:34;97963.69;;;11.39;100.00
49723;BME280;43484;43.608;1.458;2024-03-08T07:01:01;97965.41;;;11.40;100.00
49723;BME280;43484;43.608;1.458;2024-03-08T07:03:31;97965.38;;;11.46;100.00
49723;BME280;43484;43.608;1.458;2024-03-08T07:05:59;97947.47;;;11.40;100.00
49723;BME280;43484;43.608;1.458;2024-03-08T07:08:28;97942.31;;;11.37;100.00
49723;BME280;43484;43.608;1.458;2024-03-08T07:10:54;97958.53;;;11.47;100.00
49723;BME280;43484;43.608;1.458;2024-03-08T07:13:22;97942.34;;;11.35;100.00
49723;BME280;43484;43.608;1.458;2024-03-08T07:15:48;97936.31;;;11.44;100.00
49723;BME280;43484;43.608;1.458;2024-03-08T07:18:15;97921.81;;;11.43;100.00
49723;BME280;43484;43.608;1.458;2024-03-08T07:20:42;97912.41;;;11.39;100.00
49723;BME280;43484;43.608;1.458;2024-03-08T07:23:10;97896.19;;;11.40;100.00
49723;BME280;43484;43.608;1.458;2024-03-08T07:25:57;97878.28;;;11.31;100.00
49723;BME280;43484;43.608;1.458;2024-03-08T07:28:24;97867.16;;;11.33;100.00
49723;BME280;43484;43.608;1.458;2024-03-08T07:30:51;97846.66;;;11.30;100.00
49723;BME280;43484;43.608;1.458;2024-03-08T07:33:17;97832.19;;;11.19;100.00
49723;BME280;43484;43.608;1.458;2024-03-08T07:35:44;97812.56;;;11.19;100.00
49723;BME280;43484;43.608;1.458;2024-03-08T07:38:12;97804.88;;;11.18;100.00
49723;BME280;43484;43.608;1.458;2024-03-08T07:40:39;97791.19;;;11.19;100.00
49723;BME280;43484;43.608;1.458;2024-03-08T07:43:15;97780.09;;;11.17;100.00
49723;BME280;43484;43.608;1.458;2024-03-08T07:45:42;97775.00;;;11.18;100.00
49723;BME280;43484;43.608;1.458;2024-03-08T07:48:09;97775.03;;;11.09;100.00
49723;BME280;43484;43.608;1.458;2024-03-08T07:50:38;97758.81;;;11.07;100.00
49723;BME280;43484;43.608;1.458;2024-03-08T07:53:08;97750.28;;;11.10;100.00
49723;BME280;43484;43.608;1.458;2024-03-08T07:55:35;97747.69;;;11.11;100.00
49723;BME280;43484;43.608;1.458;2024-03-08T07:58:03;97736.59;;;11.11;100.00
49723;BME280;43484;43.608;1.458;2024-03-08T08:00:30;97724.66;;;11.07;100.00
49723;BME280;43484;43.608;1.458;2024-03-08T08:02:58;97722.09;;;11.05;100.00
49723;BME280;43484;43.608;1.458;2024-03-08T08:05:25;97722.09;;;11.05;100.00
49723;BME280;43484;43.608;1.458;2024-03-08T08:07:53;97716.09;;;11.11;100.00
49723;BME280;43484;43.608;1.458;2024-03-08T08:10:20;97705.81;;;11.18;100.00
49723;BME280;43484;43.608;1.458;2024-03-08T08:12:52;97700.59;;;11.26;100.00
49723;BME280;43484;43.608;1.458;2024-03-08T08:15:19;97698.91;;;11.25;100.00
49723;BME280;43484;43.608;1.458;2024-03-08T08:17:47;97693.81;;;11.19;100.00
49723;BME280;43484;43.608;1.458;2024-03-08T08:20:18;97677.56;;;11.24;100.00
49723;BME280;43484;43.608;1.458;2024-03-08T08:22:45;97680.97;;;11.26;100.00
49723;BME280;43484;43.608;1.458;2024-03-08T08:25:12;97679.25;;;11.24;100.00
49723;BME280;43484;43.608;1.458;2024-03-08T08:27:40;97675.91;;;11.14;100.00
49723;BME280;43484;43.608;1.458;2024-03-08T08:30:07;97680.16;;;11.17;100.00
49723;BME280;43484;43.608;1.458;2024-03-08T08:32:35;97671.66;;;11.16;100.00
49723;BME280;43484;43.608;1.458;2024-03-08T08:35:13;97671.56;;;11.24;100.00
49723;BME280;43484;43.608;1.458;2024-03-08T08:37:41;97674.22;;;11.13;100.00
49723;BME280;43484;43.608;1.458;2024-03-08T08:40:08;97672.44;;;11.23;100.00
49723;BME280;43484;43.608;1.458;2024-03-08T08:42:42;97682.66;;;11.26;100.00
49723;BME280;43484;43.608;1.458;2024-03-08T08:45:09;97683.56;;;11.20;100.00
49723;BME280;43484;43.608;1.458;2024-03-08T08:47:46;97688.72;;;11.17;100.00
49723;BME280;43484;43.608;1.458;2024-03-08T08:50:13;97687.03;;;11.12;100.00
49723;BME280;43484;43.608;1.458;2024-03-08T08:52:40;97681.88;;;11.19;100.00
49723;BME280;43484;43.608;1.458;2024-03-08T08:55:10;97677.63;;;11.14;100.00
49723;BME280;43484;43.608;1.458;2024-03-08T08:57:43;97681.00;;;11.20;100.00
49723;BME280;43484;43.608;1.458;2024-03-08T09:00:10;97663.13;;;11.13;100.00
49723;BME280;43484;43.608;1.458;2024-03-08T09:02:42;97666.56;;;11.07;100.00
49723;BME280;43484;43.608;1.458;2024-03-08T09:05:09;97680.28;;;11.00;100.00
49723;BME280;43484;43.608;1.458;2024-03-08T09:07:35;97692.25;;;11.03;100.00
49723;BME280;43484;43.608;1.458;2024-03-08T09:10:03;97710.22;;;10.98;100.00
49723;BME280;43484;43.608;1.458;2024-03-08T09:12:43;97702.00;;;10.35;100.00
49723;BME280;43484;43.608;1.458;2024-03-08T09:15:10;97703.75;;;10.07;100.00
49723;BME280;43484;43.608;1.458;2024-03-08T09:17:40;97713.22;;;9.67;100.00
49723;BME280;43484;43.608;1.458;2024-03-08T09:20:08;97751.56;;;9.70;100.00
49723;BME280;43484;43.608;1.458;2024-03-08T09:22:36;97777.97;;;9.77;100.00
49723;BME280;43484;43.608;1.458;2024-03-08T09:25:04;97793.31;;;9.57;100.00
49723;BME280;43484;43.608;1.458;2024-03-08T09:27:31;97795.88;;;9.56;100.00
49723;BME280;43484;43.608;1.458;2024-03-08T09:29:58;97799.28;;;9.46;100.00
49723;BME280;43484;43.608;1.458;2024-03-08T09:32:24;97802.66;;;9.34;100.00
49723;BME280;43484;43.608;1.458;2024-03-08T09:34:52;97815.44;;;9.39;100.00
49723;BME280;43484;43.608;1.458;2024-03-08T09:37:19;97829.03;;;9.38;100.00
49723;BME280;43484;43.608;1.458;2024-03-08T09:39:45;97824.78;;;9.41;100.00
49723;BME280;43484;43.608;1.458;2024-03-08T09:42:12;97827.34;;;9.37;100.00
49723;BME280;43484;43.608;1.458;2024-03-08T09:44:45;97838.44;;;9.45;100.00
49723;BME280;43484;43.608;1.458;2024-03-08T09:47:15;97851.19;;;9.33;100.00
49723;BME280;43484;43.608;1.458;2024-03-08T09:49:42;97852.03;;;9.32;100.00
49723;BME280;43484;43.608;1.458;2024-03-08T09:52:10;97854.59;;;9.36;100.00
49723;BME280;43484;43.608;1.458;2024-03-08T09:54:39;97846.03;;;9.16;100.00
49723;BME280;43484;43.608;1.458;2024-03-08T09:57:06;97843.47;;;9.18;100.00
49723;BME280;43484;43.608;1.458;2024-03-08T09:59:35;97846.88;;;9.17;100.00
49723;BME280;43484;43.608;1.458;2024-03-08T10:02:02;97858.84;;;9.28;100.00
49723;BME280;43484;43.608;1.458;2024-03-08T10:04:29;97846.09;;;9.39;100.00
49723;BME280;43484;43.608;1.458;2024-03-08T10:06:58;97825.59;;;9.12;100.00
49723;BME280;43484;43.608;1.458;2024-03-08T10:09:25;97811.09;;;9.02;100.00
49723;BME280;43484;43.608;1.458;2024-03-08T10:11:56;97790.66;;;8.99;100.00
49723;BME280;43484;43.608;1.458;2024-03-08T10:14:24;97794.03;;;8.98;100.00
49723;BME280;43484;43.608;1.458;2024-03-08T10:16:52;97781.28;;;8.92;100.00
49723;BME280;43484;43.608;1.458;2024-03-08T10:19:19;97771.09;;;9.01;100.00
49723;BME280;43484;43.608;1.458;2024-03-08T10:21:51;97716.59;;;9.05;100.00
49723;BME280;43484;43.608;1.458;2024-03-08T10:24:23;97643.41;;;8.90;100.00
49723;BME280;43484;43.608;1.458;2024-03-08T10:27:02;97639.16;;;9.04;100.00
49723;BME280;43484;43.608;1.458;2024-03-08T10:29:33;97622.97;;;9.05;100.00
49723;BME280;43484;43.608;1.458;2024-03-08T10:32:01;97564.25;;;8.95;100.00
49723;BME280;43484;43.608;1.458;2024-03-08T10:34:28;97553.22;;;8.80;100.00
49723;BME280;43484;43.608;1.458;2024-03-08T10:37:03;97532.78;;;8.83;100.00
49723;BME280;43484;43.608;1.458;2024-03-08T10:39:35;97507.25;;;8.94;100.00
49723;BME280;43484;43.608;1.458;2024-03-08T10:42:04;97527.63;;;9.02;100.00
49723;BME280;43484;43.608;1.458;2024-03-08T10:44:47;97502.09;;;9.06;100.00
49723;BME280;43484;43.608;1.458;2024-03-08T10:47:26;97480.00;;;9.02;100.00
49723;BME280;43484;43.608;1.458;2024-03-08T10:52:31;97470.56;;;9.16;100.00
49723;BME280;43484;43.608;1.458;2024-03-08T10:54:59;97499.50;;;9.23;100.00
49723;BME280;43484;43.608;1.458;2024-03-08T10:57:27;97543.81;;;9.16;100.00
49723;BME280;43484;43.608;1.458;2024-03-08T10:59:54;97553.13;;;9.30;100.00
49723;BME280;43484;43.608;1.458;2024-03-08T11:02:25;97572.66;;;9.55;100.00
49723;BME280;43484;43.608;1.458;2024-03-08T11:04:54;97603.34;;;9.52;100.00
49723;BME280;43484;43.608;1.458;2024-03-08T11:07:24;97631.38;;;9.81;100.00
49723;BME280;43484;43.608;1.458;2024-03-08T11:09:54;97644.94;;;10.08;100.00
49723;BME280;43484;43.608;1.458;2024-03-08T11:14:59;97647.50;;;10.10;100.00
49723;BME280;43484;43.608;1.458;2024-03-08T11:19:58;97641.41;;;10.38;100.00
49723;BME280;43484;43.608;1.458;2024-03-08T11:22:33;97631.13;;;10.44;100.00
49723;BME280;43484;43.608;1.458;2024-03-08T11:25:04;97627.75;;;10.39;100.00
49723;BME280;43484;43.608;1.458;2024-03-08T11:27:37;97631.94;;;10.54;100.00
49723;BME280;43484;43.608;1.458;2024-03-08T11:30:08;97619.88;;;10.72;100.00
49723;BME280;43484;43.608;1.458;2024-03-08T11:32:47;97613.00;;;10.77;100.00
49723;BME280;43484;43.608;1.458;2024-03-08T11:35:19;97616.38;;;10.82;100.00
49723;BME280;43484;43.608;1.458;2024-03-08T11:37:46;97621.59;;;10.73;100.00
49723;BME280;43484;43.608;1.458;2024-03-08T11:40:15;97635.22;;;10.74;100.00
49723;BME280;43484;43.608;1.458;2024-03-08T11:42:47;97640.31;;;10.80;100.00
49723;BME280;43484;43.608;1.458;2024-03-08T11:45:18;97635.13;;;10.87;100.00
49723;BME280;43484;43.608;1.458;2024-03-08T11:47:48;97633.50;;;10.76;100.00
49723;BME280;43484;43.608;1.458;2024-03-08T11:50:17;97630.94;;;10.77;100.00
49723;BME280;43484;43.608;1.458;2024-03-08T11:52:46;97625.84;;;10.74;100.00
49723;BME280;43484;43.608;1.458;2024-03-08T11:55:13;97636.03;;;10.80;100.00
49723;BME280;43484;43.608;1.458;2024-03-08T11:57:40;97639.44;;;10.82;100.00
49723;BME280;43484;43.608;1.458;2024-03-08T12:00:18;97645.44;;;10.80;100.00
49723;BME280;43484;43.608;1.458;2024-03-08T12:03:05;97654.84;;;10.72;100.00
49723;BME280;43484;43.608;1.458;2024-03-08T12:05:33;97654.06;;;10.68;100.00
49723;BME280;43484;43.608;1.458;2024-03-08T12:08:01;97669.38;;;10.74;100.00
49723;BME280;43484;43.608;1.458;2024-03-08T12:10:29;97679.63;;;10.71;100.00
49723;BME280;43484;43.608;1.458;2024-03-08T12:12:57;97712.06;;;10.69;100.00
49723;BME280;43484;43.608;1.458;2024-03-08T12:15:29;97718.91;;;10.67;100.00
49723;BME280;43484;43.608;1.458;2024-03-08T12:17:59;97700.97;;;10.73;100.00
49723;BME280;43484;43.608;1.458;2024-03-08T12:20:28;97693.97;;;10.99;100.00
49723;BME280;43484;43.608;1.458;2024-03-08T12:22:59;97696.56;;;10.96;100.00
49723;BME280;43484;43.608;1.458;2024-03-08T12:25:33;97704.97;;;11.13;100.00
49723;BME280;43484;43.608;1.458;2024-03-08T12:28:11;97743.44;;;11.06;100.00
49723;BME280;43484;43.608;1.458;2024-03-08T12:30:50;97778.50;;;11.01;100.00
49723;BME280;43484;43.608;1.458;2024-03-08T12:33:19;97813.47;;;11.08;100.00
49723;BME280;43484;43.608;1.458;2024-03-08T12:35:53;97834.84;;;11.08;100.00
49723;BME280;43484;43.608;1.458;2024-03-08T12:38:21;97840.72;;;11.22;100.00
49723;BME280;43484;43.608;1.458;2024-03-08T12:40:58;97856.09;;;11.24;100.00
49723;BME280;43484;43.608;1.458;2024-03-08T12:43:26;97825.28;;;11.34;100.00
49723;BME280;43484;43.608;1.458;2024-03-08T12:45:58;97869.72;;;11.32;100.00
49723;BME280;43484;43.608;1.458;2024-03-08T12:48:25;97903.03;;;11.38;100.00
49723;BME280;43484;43.608;1.458;2024-03-08T12:50:52;97932.00;;;11.51;100.00
49723;BME280;43484;43.608;1.458;2024-03-08T12:53:21;97939.69;;;11.52;100.00
49723;BME280;43484;43.608;1.458;2024-03-08T12:55:49;97940.53;;;11.66;100.00
49723;BME280;43484;43.608;1.458;2024-03-08T12:58:16;97922.56;;;11.66;100.00
49723;BME280;43484;43.608;1.458;2024-03-08T13:00:43;97931.09;;;11.70;100.00
49723;BME280;43484;43.608;1.458;2024-03-08T13:03:10;97901.19;;;11.69;100.00
49723;BME280;43484;43.608;1.458;2024-03-08T13:05:38;97878.00;;;11.81;100.00